Time;durP1;ratioP1;P1;durP2;ratioP2;P2;SDS_P1;SDS_P2;PMS_P1;PMS_P2;Temp;Humidity;BMP_temperature;BMP_pressure;BME280_temperature;BME280_humidity;BME280_pressure;Samples;Min_cycle;Max_cycle;Signal;HPM_P1;HPM_P2
2023/12/07 00:01:37;;;;;;;6.80;2.20;;;1.70;99.90;;;;;;5051835;28;20115;-75
2023/12/07 00:04:03;;;;;;;3.75;2.10;;;1.60;99.90;;;;;;5053613;28;20029;-74
2023/12/07 00:06:29;;;;;;;6.07;2.92;;;1.70;99.90;;;;;;5051989;28;20090;-74
2023/12/07 00:08:54;;;;;;;4.82;2.60;;;1.40;99.90;;;;;;5053447;28;20029;-74
2023/12/07 00:11:23;;;;;;;4.63;2.55;;;1.50;99.90;;;;;;5053683;28;20105;-75
2023/12/07 00:13:48;;;;;;;5.55;2.20;;;1.30;99.90;;;;;;5052108;28;20033;-74
2023/12/07 00:16:14;;;;;;;4.78;2.42;;;1.40;99.90;;;;;;5052889;28;20033;-74
2023/12/07 00:18:40;;;;;;;4.10;2.28;;;1.30;99.90;;;;;;5056695;28;20067;-74
2023/12/07 00:21:08;;;;;;;4.60;2.58;;;1.20;99.90;;;;;;5055769;28;20082;-74
2023/12/07 00:23:33;;;;;;;5.60;2.40;;;1.20;99.90;;;;;;5057059;28;20028;-74
2023/12/07 00:25:59;;;;;;;4.85;2.25;;;1.20;99.90;;;;;;5057140;28;20044;-74
2023/12/07 00:28:25;;;;;;;6.00;2.63;;;1.20;99.90;;;;;;5056487;28;20035;-74
2023/12/07 00:30:50;;;;;;;4.38;2.03;;;1.40;99.90;;;;;;5056856;28;20052;-74
2023/12/07 00:33:17;;;;;;;6.70;2.50;;;1.80;99.90;;;;;;5055975;28;20382;-74
2023/12/07 00:35:42;;;;;;;4.03;1.95;;;1.80;99.90;;;;;;5056432;28;20055;-74
2023/12/07 00:38:08;;;;;;;5.45;2.22;;;1.80;99.90;;;;;;5056850;28;20390;-74
2023/12/07 00:40:36;;;;;;;4.85;2.15;;;1.70;99.90;;;;;;5056113;28;20037;-74
2023/12/07 00:43:03;;;;;;;3.85;1.98;;;1.70;99.90;;;;;;5056766;28;20029;-74
2023/12/07 00:45:29;;;;;;;3.92;2.00;;;1.70;99.90;;;;;;5056891;28;20062;-74
2023/12/07 00:47:54;;;;;;;4.70;2.35;;;1.70;99.90;;;;;;5054862;28;20447;-74
2023/12/07 00:50:20;;;;;;;6.15;2.58;;;1.50;99.90;;;;;;5056326;28;20482;-74
2023/12/07 00:52:46;;;;;;;6.03;2.65;;;1.40;99.90;;;;;;5055790;28;20390;-74
2023/12/07 00:55:11;;;;;;;5.97;2.95;;;1.50;99.90;;;;;;5056146;28;20032;-74
2023/12/07 00:57:37;;;;;;;4.22;2.40;;;1.40;99.90;;;;;;5055411;28;20032;-74
2023/12/07 01:00:04;;;;;;;4.40;2.40;;;1.30;99.90;;;;;;5057055;28;20075;-74
2023/12/07 01:02:29;;;;;;;4.47;2.42;;;1.50;99.90;;;;;;5055884;28;20784;-74
2023/12/07 01:04:55;;;;;;;4.50;2.20;;;1.40;99.90;;;;;;5055173;28;20028;-74
2023/12/07 01:07:21;;;;;;;4.10;1.90;;;1.40;99.90;;;;;;5056808;28;20052;-74
2023/12/07 01:09:47;;;;;;;5.38;1.80;;;1.50;99.90;;;;;;5056231;28;20129;-74
2023/12/07 01:12:12;;;;;;;4.88;1.95;;;1.70;99.90;;;;;;5056185;28;20493;-74
2023/12/07 01:14:38;;;;;;;5.68;1.88;;;1.60;99.90;;;;;;5056402;28;20036;-74
2023/12/07 01:17:04;;;;;;;5.43;1.95;;;1.60;99.90;;;;;;5055359;28;21696;-73
2023/12/07 01:19:30;;;;;;;4.80;1.92;;;1.40;99.90;;;;;;5055458;28;20205;-74
2023/12/07 01:21:55;;;;;;;4.45;2.17;;;1.60;99.90;;;;;;5055504;28;20401;-73
2023/12/07 01:24:21;;;;;;;3.85;2.08;;;1.50;99.90;;;;;;5054483;28;20036;-74
2023/12/07 01:26:46;;;;;;;4.55;2.03;;;1.70;99.90;;;;;;5055563;28;20032;-74
2023/12/07 01:29:13;;;;;;;4.97;2.05;;;1.50;99.90;;;;;;5056313;28;20051;-74
2023/12/07 01:31:40;;;;;;;4.28;2.30;;;1.40;99.90;;;;;;5054976;28;20036;-74
2023/12/07 01:34:05;;;;;;;2.90;1.70;;;1.30;99.90;;;;;;5055274;28;20644;-74
2023/12/07 01:36:31;;;;;;;3.97;1.95;;;1.40;99.90;;;;;;5054991;28;20044;-74
2023/12/07 01:38:57;;;;;;;3.97;1.60;;;1.30;99.90;;;;;;5055038;28;20024;-74
2023/12/07 01:41:23;;;;;;;4.40;2.25;;;1.30;99.90;;;;;;5056860;28;20493;-73
2023/12/07 01:43:49;;;;;;;4.88;1.90;;;1.40;99.90;;;;;;5055139;28;25367;-74
2023/12/07 01:46:17;;;;;;;3.50;1.90;;;1.40;99.90;;;;;;5055716;28;20709;-73
2023/12/07 01:48:43;;;;;;;4.15;1.85;;;1.50;99.90;;;;;;5054420;28;20067;-74
2023/12/07 01:51:10;;;;;;;4.10;1.95;;;1.40;99.90;;;;;;5053981;28;20454;-74
2023/12/07 01:53:36;;;;;;;5.70;2.17;;;1.20;99.90;;;;;;5053394;28;20490;-74
2023/12/07 01:56:01;;;;;;;3.90;2.20;;;1.40;99.90;;;;;;5055608;28;20039;-74
2023/12/07 01:58:27;;;;;;;4.70;1.80;;;1.60;99.90;;;;;;5054523;28;20094;-74
2023/12/07 02:00:53;;;;;;;4.63;1.85;;;1.60;99.90;;;;;;5056326;28;20111;-74
2023/12/07 02:03:20;;;;;;;3.22;1.30;;;1.60;99.90;;;;;;5054621;28;20043;-74
2023/12/07 02:05:49;;;;;;;4.07;1.83;;;1.40;99.90;;;;;;5059547;28;20097;-75
2023/12/07 02:08:14;;;;;;;4.20;1.85;;;1.50;99.90;;;;;;5059639;28;20028;-73
2023/12/07 02:10:41;;;;;;;3.58;1.42;;;1.40;99.90;;;;;;5059694;28;20032;-74
2023/12/07 02:13:08;;;;;;;4.25;1.83;;;1.50;99.90;;;;;;5059040;28;20079;-74
2023/12/07 02:15:34;;;;;;;2.97;1.38;;;1.40;99.90;;;;;;5060348;28;20036;-74
2023/12/07 02:18:31;;;;;;;5.07;1.70;;;1.40;99.90;;;;;;5058597;28;20029;-73
2023/12/07 02:21:38;;;;;;;4.18;1.55;;;1.50;99.90;;;;;;5060107;28;20182;-74
2023/12/07 02:24:06;;;;;;;3.53;1.48;;;1.50;99.90;;;;;;5027713;28;20109;-74
2023/12/07 02:26:34;;;;;;;3.58;1.42;;;1.50;99.90;;;;;;5058530;28;20901;-74
2023/12/07 02:28:59;;;;;;;5.65;2.10;;;1.50;99.90;;;;;;5057920;28;20509;-74
2023/12/07 02:31:25;;;;;;;4.95;1.98;;;1.80;99.90;;;;;;5056591;28;20044;-73
2023/12/07 02:33:51;;;;;;;4.07;1.60;;;1.80;99.90;;;;;;5058649;28;20048;-74
2023/12/07 02:36:20;;;;;;;5.13;1.88;;;1.80;99.90;;;;;;5057826;28;20473;-74
2023/12/07 02:38:49;;;;;;;6.63;2.10;;;1.80;99.90;;;;;;5059235;28;20490;-73
2023/12/07 02:41:16;;;;;;;4.55;1.98;;;2.00;99.90;;;;;;5059684;28;20123;-74
2023/12/07 02:43:42;;;;;;;6.15;2.42;;;2.00;99.90;;;;;;5058741;28;20017;-74
2023/12/07 02:46:08;;;;;;;3.92;1.92;;;1.80;99.90;;;;;;5057110;28;20056;-74
2023/12/07 02:48:34;;;;;;;5.20;2.22;;;1.30;99.90;;;;;;5059447;28;20115;-74
2023/12/07 02:50:59;;;;;;;3.70;1.77;;;1.20;99.90;;;;;;5058816;28;20033;-73
2023/12/07 02:53:25;;;;;;;5.80;2.28;;;1.40;99.90;;;;;;5058071;28;20040;-74
2023/12/07 02:55:50;;;;;;;5.18;2.30;;;1.50;99.90;;;;;;5058759;28;20147;-74
2023/12/07 02:58:16;;;;;;;4.93;2.65;;;1.60;99.90;;;;;;5058226;28;20055;-74
2023/12/07 03:00:42;;;;;;;5.15;2.53;;;1.80;99.90;;;;;;5058754;28;20040;-74
2023/12/07 03:03:07;;;;;;;4.18;1.98;;;1.80;99.90;;;;;;5057914;28;20090;-74
2023/12/07 03:05:33;;;;;;;6.07;2.13;;;1.90;99.90;;;;;;5057603;28;20033;-74
2023/12/07 03:07:59;;;;;;;4.47;1.90;;;2.00;99.90;;;;;;5058982;28;21028;-74
2023/12/07 03:10:24;;;;;;;3.88;2.05;;;2.00;99.90;;;;;;5057178;28;20113;-74
2023/12/07 03:12:50;;;;;;;3.17;1.63;;;2.00;99.90;;;;;;5056837;28;20036;-74
2023/12/07 03:15:15;;;;;;;3.42;1.60;;;2.00;99.90;;;;;;5057721;28;20036;-74
2023/12/07 03:17:41;;;;;;;5.30;1.80;;;2.20;99.90;;;;;;5057454;28;20067;-74
2023/12/07 03:20:08;;;;;;;3.80;1.77;;;2.20;99.90;;;;;;5056509;28;20110;-74
2023/12/07 03:22:34;;;;;;;5.68;1.75;;;1.90;99.90;;;;;;5057318;28;20226;-74
2023/12/07 03:24:59;;;;;;;4.22;2.00;;;1.70;99.90;;;;;;5057734;28;20032;-73
2023/12/07 03:27:26;;;;;;;3.38;1.77;;;1.80;99.90;;;;;;5056746;28;20036;-74
2023/12/07 03:29:51;;;;;;;3.65;1.90;;;1.90;99.90;;;;;;5056563;28;20024;-74
2023/12/07 03:32:17;;;;;;;3.78;1.63;;;1.80;99.90;;;;;;5057546;28;20055;-74
2023/12/07 03:34:43;;;;;;;4.38;1.98;;;1.50;99.90;;;;;;5056231;28;20106;-74
2023/12/07 03:37:08;;;;;;;2.55;1.50;;;1.50;99.90;;;;;;5057288;28;20036;-74
2023/12/07 03:39:34;;;;;;;3.35;1.80;;;1.80;99.90;;;;;;5057173;28;21293;-74
2023/12/07 03:42:00;;;;;;;3.17;1.33;;;1.90;99.90;;;;;;5058294;28;20035;-74
2023/12/07 03:44:26;;;;;;;6.95;2.90;;;1.80;99.90;;;;;;5057270;28;20037;-74
2023/12/07 03:46:53;;;;;;;7.45;3.80;;;1.40;99.90;;;;;;5056756;28;20045;-74
2023/12/07 03:49:18;;;;;;;5.97;3.20;;;1.00;99.90;;;;;;5054872;28;20040;-74
2023/12/07 03:51:44;;;;;;;6.57;2.50;;;0.80;99.90;;;;;;5058765;28;20017;-74
2023/12/07 03:54:10;;;;;;;6.28;1.80;;;0.80;99.90;;;;;;5055827;28;20040;-74
2023/12/07 03:56:35;;;;;;;4.95;2.03;;;1.20;99.90;;;;;;5057017;28;20025;-74
2023/12/07 03:59:01;;;;;;;5.10;3.03;;;1.50;99.90;;;;;;5056422;28;20486;-74
2023/12/07 04:01:29;;;;;;;3.70;1.75;;;1.20;99.90;;;;;;5054540;28;20036;-74
2023/12/07 04:03:56;;;;;;;3.38;1.40;;;1.30;99.90;;;;;;5053423;28;20040;-73
2023/12/07 04:06:25;;;;;;;5.80;2.53;;;1.50;99.90;;;;;;5052336;28;20052;-74
2023/12/07 04:08:51;;;;;;;4.43;1.63;;;2.00;99.90;;;;;;5051380;28;20017;-74
2023/12/07 04:11:17;;;;;;;3.25;1.42;;;2.20;99.90;;;;;;5051787;28;20032;-74
2023/12/07 04:13:43;;;;;;;2.88;1.35;;;2.20;99.90;;;;;;5052665;28;20032;-74
2023/12/07 04:16:11;;;;;;;3.75;1.25;;;2.00;99.90;;;;;;5052240;28;20718;-74
2023/12/07 04:18:37;;;;;;;3.47;1.70;;;1.70;99.90;;;;;;5047308;28;20036;-75
2023/12/07 04:21:05;;;;;;;2.85;1.30;;;1.60;99.90;;;;;;5050203;28;20064;-74
2023/12/07 04:23:30;;;;;;;3.88;1.73;;;1.80;99.90;;;;;;5049038;28;20102;-74
2023/12/07 04:25:56;;;;;;;4.97;1.67;;;1.80;99.90;;;;;;5050570;28;20702;-74
2023/12/07 04:28:21;;;;;;;2.53;1.33;;;1.70;99.90;;;;;;5052599;28;20025;-75
2023/12/07 04:30:47;;;;;;;3.40;1.83;;;1.60;99.90;;;;;;5050980;28;20126;-74
2023/12/07 04:33:13;;;;;;;5.65;2.55;;;1.20;99.90;;;;;;5051104;28;20035;-74
2023/12/07 04:35:38;;;;;;;5.25;2.92;;;1.00;99.90;;;;;;5053686;28;20049;-74
2023/12/07 04:38:04;;;;;;;6.63;3.10;;;0.80;99.90;;;;;;5051118;28;20091;-74
2023/12/07 04:40:30;;;;;;;6.13;3.35;;;0.70;99.90;;;;;;5052351;28;20036;-74
2023/12/07 04:42:55;;;;;;;7.80;2.70;;;0.40;99.90;;;;;;5052748;28;20040;-74
2023/12/07 04:45:22;;;;;;;2.90;1.45;;;0.40;99.90;;;;;;5053024;28;20032;-74
2023/12/07 04:47:47;;;;;;;4.57;1.63;;;0.70;99.90;;;;;;5050879;28;20043;-74
2023/12/07 04:50:14;;;;;;;2.28;1.00;;;0.60;99.90;;;;;;5053116;28;20032;-74
2023/12/07 04:52:39;;;;;;;2.88;1.40;;;0.70;99.90;;;;;;5049696;28;20041;-74
2023/12/07 04:55:06;;;;;;;2.50;1.27;;;0.90;99.90;;;;;;5049517;28;20032;-74
2023/12/07 04:57:36;;;;;;;3.08;1.35;;;1.10;99.90;;;;;;5050548;28;20193;-74
2023/12/07 05:00:13;;;;;;;3.20;1.42;;;1.20;99.90;;;;;;5049276;28;20067;-74
2023/12/07 05:02:39;;;;;;;2.88;1.30;;;1.30;99.90;;;;;;5049270;28;20032;-74
2023/12/07 05:05:05;;;;;;;6.30;3.15;;;1.60;99.90;;;;;;5049719;28;20039;-74
2023/12/07 05:07:30;;;;;;;7.03;3.72;;;1.30;99.90;;;;;;5050432;28;20122;-74
2023/12/07 05:09:56;;;;;;;7.15;3.38;;;1.00;99.90;;;;;;5049452;28;20033;-74
2023/12/07 05:12:22;;;;;;;6.28;2.30;;;0.80;99.90;;;;;;5048962;28;20033;-74
2023/12/07 05:14:47;;;;;;;4.65;2.10;;;0.60;99.90;;;;;;5049995;28;20933;-75
2023/12/07 05:17:14;;;;;;;4.85;1.50;;;0.50;99.90;;;;;;5049121;28;20374;-74
2023/12/07 05:19:40;;;;;;;3.60;1.73;;;0.40;99.90;;;;;;5048869;28;20036;-74
2023/12/07 05:22:05;;;;;;;3.08;1.20;;;0.30;99.90;;;;;;5048848;28;20038;-74
2023/12/07 05:24:34;;;;;;;2.80;1.20;;;0.60;99.90;;;;;;5048681;28;20032;-74
2023/12/07 05:27:00;;;;;;;3.60;1.10;;;0.70;99.90;;;;;;5048131;28;20067;-74
2023/12/07 05:29:25;;;;;;;1.98;0.90;;;1.00;99.90;;;;;;5048456;28;20063;-74
2023/12/07 05:31:51;;;;;;;2.97;1.58;;;1.00;99.90;;;;;;5048320;28;20045;-75
2023/12/07 05:34:17;;;;;;;2.05;1.27;;;1.00;99.90;;;;;;5047439;28;20051;-73
2023/12/07 05:36:43;;;;;;;4.22;1.58;;;1.10;99.90;;;;;;5049937;28;20028;-74
2023/12/07 05:39:11;;;;;;;2.40;1.30;;;1.20;99.90;;;;;;5046715;28;20031;-74
2023/12/07 05:41:37;;;;;;;3.30;1.40;;;1.20;99.90;;;;;;5047911;28;20021;-74
2023/12/07 05:44:03;;;;;;;3.50;1.77;;;1.00;99.90;;;;;;5048179;28;20032;-74
2023/12/07 05:46:29;;;;;;;3.05;1.40;;;1.20;99.90;;;;;;5047819;28;20044;-74
2023/12/07 05:48:55;;;;;;;3.38;1.10;;;1.50;99.90;;;;;;5047493;28;20552;-75
2023/12/07 05:51:20;;;;;;;2.10;1.00;;;1.40;99.90;;;;;;5048206;28;20056;-74
2023/12/07 05:53:46;;;;;;;4.00;1.33;;;1.30;99.90;;;;;;5049878;28;20040;-74
2023/12/07 05:56:12;;;;;;;2.70;1.13;;;1.40;99.90;;;;;;5047348;28;20162;-74
2023/12/07 05:58:38;;;;;;;3.25;1.35;;;1.30;99.90;;;;;;5047865;28;20478;-74
2023/12/07 06:01:05;;;;;;;3.00;1.20;;;1.20;99.90;;;;;;5045303;28;20032;-74
2023/12/07 06:03:30;;;;;;;3.03;1.23;;;1.10;99.90;;;;;;5047691;28;20021;-74
2023/12/07 06:05:56;;;;;;;3.55;1.40;;;1.10;99.90;;;;;;5048828;28;20038;-74
2023/12/07 06:08:25;;;;;;;3.47;1.60;;;1.10;99.90;;;;;;5047172;28;20056;-73
2023/12/07 06:10:50;;;;;;;3.22;1.45;;;1.00;99.90;;;;;;5047357;28;20036;-74
2023/12/07 06:13:16;;;;;;;4.43;1.35;;;1.00;99.90;;;;;;5050420;28;20040;-75
2023/12/07 06:15:42;;;;;;;2.38;1.20;;;0.90;99.90;;;;;;5047580;28;20407;-74
2023/12/07 06:18:07;;;;;;;2.65;1.10;;;0.90;99.90;;;;;;5048160;28;20489;-77
2023/12/07 06:20:34;;;;;;;4.75;1.27;;;0.90;99.90;;;;;;5050141;28;20051;-74
2023/12/07 06:23:01;;;;;;;3.13;1.55;;;0.90;99.90;;;;;;5048434;28;20037;-74
2023/12/07 06:25:27;;;;;;;4.60;1.77;;;1.10;99.90;;;;;;5047392;28;20037;-74
2023/12/07 06:27:53;;;;;;;3.28;1.35;;;1.00;99.90;;;;;;5046946;28;20048;-74
2023/12/07 06:30:18;;;;;;;3.25;1.27;;;1.00;99.90;;;;;;5048181;28;20040;-73
2023/12/07 06:32:44;;;;;;;3.30;1.40;;;1.10;99.90;;;;;;5047286;28;20060;-73
2023/12/07 06:35:13;;;;;;;3.05;1.10;;;1.10;99.90;;;;;;5047294;28;20168;-74
2023/12/07 06:37:41;;;;;;;1.35;0.80;;;1.20;99.90;;;;;;5048833;28;20032;-74
2023/12/07 06:40:09;;;;;;;2.70;1.15;;;1.00;99.90;;;;;;5047697;28;20407;-73
2023/12/07 06:42:35;;;;;;;1.77;1.08;;;1.00;99.90;;;;;;5047688;28;20033;-73
2023/12/07 06:45:02;;;;;;;3.45;1.30;;;1.10;99.90;;;;;;5049888;28;20037;-74
2023/12/07 06:47:28;;;;;;;2.95;1.30;;;1.00;99.90;;;;;;5047751;28;20052;-73
2023/12/07 06:49:53;;;;;;;2.30;0.93;;;1.10;99.90;;;;;;5048818;28;20035;-73
2023/12/07 06:52:19;;;;;;;2.05;1.10;;;1.00;99.90;;;;;;5053331;28;20037;-73
2023/12/07 06:54:45;;;;;;;2.72;1.02;;;1.00;99.90;;;;;;5051978;28;20115;-74
2023/12/07 06:57:12;;;;;;;3.08;1.20;;;0.80;99.90;;;;;;5050810;28;20028;-74
2023/12/07 06:59:37;;;;;;;2.47;1.40;;;0.80;99.90;;;;;;5052191;28;20119;-74
2023/12/07 07:02:04;;;;;;;3.17;1.30;;;1.00;99.90;;;;;;5051557;28;20029;-74
2023/12/07 07:04:29;;;;;;;3.63;1.55;;;0.90;99.90;;;;;;5051887;28;20036;-73
2023/12/07 07:06:56;;;;;;;2.30;1.15;;;1.00;99.90;;;;;;5052391;28;20052;-73
2023/12/07 07:09:22;;;;;;;2.55;1.10;;;1.10;99.90;;;;;;5050810;28;20035;-74
2023/12/07 07:11:48;;;;;;;3.75;1.10;;;1.20;99.90;;;;;;5051218;28;20040;-74
2023/12/07 07:14:13;;;;;;;5.65;2.20;;;1.30;99.90;;;;;;5051643;28;20064;-73
2023/12/07 07:16:39;;;;;;;5.22;2.40;;;1.20;99.90;;;;;;5051945;28;20119;-74
2023/12/07 07:19:05;;;;;;;4.13;2.38;;;1.00;99.90;;;;;;5050648;28;20489;-74
2023/12/07 07:21:31;;;;;;;4.82;2.40;;;1.00;99.90;;;;;;5051651;28;20032;-73
2023/12/07 07:23:57;;;;;;;21.98;15.65;;;0.80;99.90;;;;;;5050168;28;20037;-74
2023/12/07 07:26:24;;;;;;;9.40;6.85;;;0.70;99.90;;;;;;5050964;28;20098;-74
2023/12/07 07:28:51;;;;;;;4.65;2.55;;;0.40;99.90;;;;;;5052624;28;20031;-74
2023/12/07 07:31:17;;;;;;;2.28;1.15;;;0.30;99.90;;;;;;5051610;28;20055;-74
2023/12/07 07:33:43;;;;;;;1.80;0.70;;;0.80;99.90;;;;;;5050681;28;20044;-75
2023/12/07 07:36:11;;;;;;;1.98;1.02;;;1.00;99.90;;;;;;5051222;28;20024;-74
2023/12/07 07:38:36;;;;;;;3.58;1.02;;;1.30;99.90;;;;;;5050525;28;20043;-74
2023/12/07 07:41:02;;;;;;;3.85;1.50;;;1.20;99.90;;;;;;5050816;28;20029;-74
2023/12/07 07:43:28;;;;;;;3.03;0.88;;;1.20;99.90;;;;;;5051023;28;20095;-74
2023/12/07 07:45:53;;;;;;;2.53;1.10;;;1.20;99.90;;;;;;5050511;28;20156;-74
2023/12/07 07:48:19;;;;;;;3.45;1.30;;;1.40;99.90;;;;;;5051211;28;20086;-74
2023/12/07 07:50:45;;;;;;;3.80;1.50;;;1.40;99.90;;;;;;5050495;28;20036;-74
2023/12/07 07:53:10;;;;;;;3.92;1.67;;;1.30;99.90;;;;;;5050171;28;20044;-74
2023/12/07 07:55:36;;;;;;;2.80;1.10;;;1.30;99.90;;;;;;5051275;28;20105;-74
2023/12/07 07:58:02;;;;;;;3.17;1.45;;;1.40;99.90;;;;;;5049918;28;20393;-74
2023/12/07 08:00:28;;;;;;;6.90;1.75;;;1.30;99.90;;;;;;5050509;28;20048;-74
2023/12/07 08:02:54;;;;;;;2.75;1.42;;;1.10;99.90;;;;;;5051809;28;20024;-75
2023/12/07 08:05:19;;;;;;;3.63;1.60;;;1.20;99.90;;;;;;5051812;28;20048;-74
2023/12/07 08:07:45;;;;;;;6.65;2.90;;;1.20;99.90;;;;;;5049950;28;20043;-72
2023/12/07 08:10:11;;;;;;;7.72;5.10;;;0.80;99.90;;;;;;5044235;28;20102;-74
2023/12/07 08:12:39;;;;;;;7.30;5.20;;;0.70;99.90;;;;;;5049416;28;20088;-73
2023/12/07 08:15:05;;;;;;;10.98;4.10;;;0.40;99.90;;;;;;5049445;28;20141;-74
2023/12/07 08:17:30;;;;;;;8.57;4.47;;;0.50;99.90;;;;;;5049660;28;20111;-73
2023/12/07 08:19:59;;;;;;;7.10;4.30;;;0.50;99.90;;;;;;5048824;28;20050;-73
2023/12/07 08:22:24;;;;;;;9.85;4.55;;;0.40;99.90;;;;;;5048437;28;20090;-73
2023/12/07 08:24:50;;;;;;;8.18;4.00;;;0.40;99.90;;;;;;5050993;28;20095;-73
2023/12/07 08:27:16;;;;;;;6.88;4.20;;;0.40;99.90;;;;;;5049195;28;20099;-73
2023/12/07 08:29:41;;;;;;;7.30;4.15;;;0.40;99.90;;;;;;5047927;28;20040;-74
2023/12/07 08:32:07;;;;;;;9.57;5.38;;;0.40;99.90;;;;;;5049565;28;20020;-73
2023/12/07 08:34:33;;;;;;;10.30;3.22;;;0.30;99.90;;;;;;5048001;28;20056;-73
2023/12/07 08:36:58;;;;;;;3.63;1.95;;;0.30;99.90;;;;;;5047776;28;20097;-73
2023/12/07 08:39:25;;;;;;;3.35;1.60;;;0.90;99.90;;;;;;5049032;28;20051;-73
2023/12/07 08:41:52;;;;;;;4.25;1.60;;;1.10;99.90;;;;;;5046889;28;20592;-74
2023/12/07 08:44:17;;;;;;;4.82;2.25;;;1.10;99.90;;;;;;5047763;28;20048;-74
2023/12/07 08:46:44;;;;;;;4.53;2.20;;;1.00;99.90;;;;;;5049322;28;20040;-73
2023/12/07 08:49:11;;;;;;;4.60;2.45;;;1.00;99.90;;;;;;5047168;28;20547;-73
2023/12/07 08:51:36;;;;;;;4.85;2.55;;;0.90;99.90;;;;;;5048387;28;20044;-74
2023/12/07 08:54:02;;;;;;;4.95;2.92;;;0.90;99.90;;;;;;5048640;28;20040;-73
2023/12/07 08:56:28;;;;;;;4.32;2.40;;;0.90;99.90;;;;;;5048458;28;20040;-73
2023/12/07 08:58:53;;;;;;;3.58;1.70;;;1.00;99.90;;;;;;5047814;28;20413;-73
2023/12/07 09:01:19;;;;;;;3.60;1.50;;;1.00;99.90;;;;;;5048104;28;20059;-73
2023/12/07 09:03:45;;;;;;;3.72;1.85;;;0.90;99.90;;;;;;5047354;28;20028;-73
2023/12/07 09:06:11;;;;;;;3.17;1.20;;;0.90;99.90;;;;;;5047952;28;20115;-73
2023/12/07 09:08:36;;;;;;;3.28;1.50;;;1.00;99.90;;;;;;5048885;28;20892;-73
2023/12/07 09:11:03;;;;;;;5.25;2.08;;;0.90;99.90;;;;;;5048536;28;20043;-73
2023/12/07 09:13:29;;;;;;;4.22;2.13;;;0.70;99.90;;;;;;5047700;28;20028;-73
2023/12/07 09:15:54;;;;;;;6.00;1.85;;;0.60;99.90;;;;;;5049456;28;20980;-74
2023/12/07 09:18:20;;;;;;;4.82;1.73;;;0.60;99.90;;;;;;5049430;28;20033;-73
2023/12/07 09:20:46;;;;;;;4.38;1.25;;;0.60;99.90;;;;;;5049098;28;20032;-73
2023/12/07 09:23:12;;;;;;;3.60;1.38;;;0.70;99.90;;;;;;5048312;28;20085;-74
2023/12/07 09:25:39;;;;;;;4.05;1.80;;;0.90;99.90;;;;;;5047949;28;20025;-73
2023/12/07 09:28:04;;;;;;;2.08;1.02;;;1.00;99.90;;;;;;5049076;28;20044;-73
2023/12/07 09:30:30;;;;;;;10.18;1.65;;;1.00;99.90;;;;;;5047307;28;20033;-73
2023/12/07 09:32:56;;;;;;;4.18;2.20;;;1.00;99.90;;;;;;5047150;28;20418;-73
2023/12/07 09:35:21;;;;;;;4.25;1.98;;;1.00;99.90;;;;;;5048467;28;20056;-73
2023/12/07 09:37:49;;;;;;;5.95;2.00;;;0.90;99.90;;;;;;5047336;28;20383;-73
2023/12/07 09:40:22;;;;;;;3.78;1.80;;;0.80;99.90;;;;;;5046013;28;20706;-73
2023/12/07 09:42:49;;;;;;;3.42;1.60;;;0.90;99.90;;;;;;5047956;28;20093;-73
2023/12/07 09:45:19;;;;;;;3.67;1.38;;;1.10;99.90;;;;;;5047263;28;20029;-73
2023/12/07 09:47:54;;;;;;;3.03;1.38;;;1.20;99.90;;;;;;5046127;28;20058;-73
2023/12/07 09:50:22;;;;;;;4.88;1.55;;;1.30;99.90;;;;;;5047493;28;20037;-73
2023/12/07 09:52:49;;;;;;;4.05;1.52;;;1.40;99.90;;;;;;5049618;28;20043;-73
2023/12/07 09:55:19;;;;;;;5.18;1.77;;;1.40;99.90;;;;;;5050776;28;20501;-73
2023/12/07 09:57:46;;;;;;;3.97;1.65;;;1.40;99.90;;;;;;5050668;28;20056;-73
2023/12/07 10:00:14;;;;;;;3.92;1.67;;;1.30;99.90;;;;;;5051584;28;20059;-74
2023/12/07 10:02:42;;;;;;;3.17;1.33;;;1.40;99.90;;;;;;5049946;28;20029;-73
2023/12/07 10:05:18;;;;;;;2.92;1.25;;;1.50;99.90;;;;;;5050210;28;20515;-74
2023/12/07 10:07:48;;;;;;;3.80;1.85;;;1.70;99.90;;;;;;5051181;28;20113;-73
2023/12/07 10:10:15;;;;;;;3.45;1.67;;;1.70;99.90;;;;;;5050633;28;20029;-74
2023/12/07 10:12:51;;;;;;;3.30;1.35;;;1.70;99.90;;;;;;5049340;28;20810;-74
2023/12/07 10:15:19;;;;;;;3.70;1.67;;;1.60;99.90;;;;;;5050011;28;20120;-73
2023/12/07 10:17:53;;;;;;;2.13;1.08;;;1.70;99.90;;;;;;5050247;28;20136;-72
2023/12/07 10:20:24;;;;;;;1.73;1.00;;;1.80;99.90;;;;;;5050740;28;20039;-73
2023/12/07 10:23:03;;;;;;;4.07;1.35;;;1.70;99.90;;;;;;5050420;28;20115;-74
2023/12/07 10:25:35;;;;;;;2.63;1.35;;;1.90;99.90;;;;;;5051416;28;20028;-73
2023/12/07 10:28:01;;;;;;;3.40;1.40;;;1.90;99.90;;;;;;5053600;28;20044;-73
2023/12/07 10:30:27;;;;;;;5.13;1.55;;;1.90;99.90;;;;;;5053489;28;20065;-73
2023/12/07 10:32:54;;;;;;;4.38;1.88;;;2.10;99.90;;;;;;5054416;28;20029;-73
2023/12/07 10:35:21;;;;;;;3.60;1.65;;;2.30;99.90;;;;;;5057750;28;20052;-73
2023/12/07 10:37:47;;;;;;;3.70;1.45;;;2.10;99.90;;;;;;5058227;28;20041;-73
2023/12/07 10:40:13;;;;;;;4.90;2.13;;;2.00;99.90;;;;;;5058674;28;20033;-72
2023/12/07 10:42:42;;;;;;;253.02;85.72;;;2.40;99.90;;;;;;5058574;28;20109;-73
2023/12/07 10:45:10;;;;;;;206.15;79.75;;;2.70;99.90;;;;;;5057509;28;20123;-73
2023/12/07 10:47:38;;;;;;;92.03;34.63;;;2.80;99.90;;;;;;5058710;28;20063;-73
2023/12/07 10:50:11;;;;;;;60.45;28.85;;;2.80;99.90;;;;;;5058134;28;20037;-73
2023/12/07 10:52:51;;;;;;;43.28;19.23;;;2.80;99.90;;;;;;5058797;28;20569;-72
2023/12/07 10:55:25;;;;;;;44.25;20.17;;;2.90;99.90;;;;;;5058407;28;20033;-73
2023/12/07 10:57:52;;;;;;;;;;;3.10;99.90;;;;;;5059260;28;20036;-72
2023/12/07 11:00:19;;;;;;;31.88;16.52;;;3.10;99.90;;;;;;5058818;28;19908;-73
2023/12/07 11:02:46;;;;;;;26.48;12.57;;;3.20;99.90;;;;;;5057679;28;20150;-72
2023/12/07 11:05:12;;;;;;;20.73;12.30;;;3.30;99.90;;;;;;5058404;28;20036;-73
2023/12/07 11:07:55;;;;;;;18.50;9.68;;;3.30;99.90;;;;;;5058641;28;20044;-73
2023/12/07 11:10:45;;;;;;;8.77;4.82;;;3.40;99.90;;;;;;5058124;28;20035;-73
2023/12/07 11:13:20;;;;;;;55.30;42.42;;;3.50;99.90;;;;;;5054953;28;20049;-73
2023/12/07 11:15:47;;;;;;;27.45;23.98;;;3.80;99.90;;;;;;5055313;28;20043;-73
2023/12/07 11:18:13;;;;;;;12.65;8.25;;;4.00;99.90;;;;;;5054670;28;20036;-73
2023/12/07 11:20:47;;;;;;;12.45;6.53;;;3.90;99.90;;;;;;5054813;28;20048;-73
2023/12/07 11:23:18;;;;;;;6.30;3.75;;;3.90;99.90;;;;;;5054533;28;20120;-73
2023/12/07 11:25:46;;;;;;;12.68;8.15;;;4.10;99.90;;;;;;5055310;28;21148;-73
2023/12/07 11:28:14;;;;;;;10.93;6.63;;;4.40;99.90;;;;;;5057000;28;20746;-73
2023/12/07 11:30:49;;;;;;;11.07;7.40;;;4.40;99.90;;;;;;5057815;28;20103;-73
2023/12/07 11:33:16;;;;;;;;;;;4.50;99.90;;;;;;5056187;28;20035;-73
2023/12/07 11:36:07;;;;;;;6.13;2.90;;;4.50;99.90;;;;;;5052570;28;19920;-73
2023/12/07 11:38:34;;;;;;;7.22;2.90;;;4.50;99.90;;;;;;5054793;28;20501;-73
2023/12/07 11:41:01;;;;;;;6.75;3.60;;;4.50;99.90;;;;;;5053264;28;20478;-73
2023/12/07 11:43:37;;;;;;;4.60;2.25;;;4.70;99.90;;;;;;5051968;28;20554;-73
2023/12/07 11:46:04;;;;;;;5.57;2.70;;;4.80;99.90;;;;;;5051380;28;20029;-73
2023/12/07 11:48:32;;;;;;;4.85;2.63;;;5.10;99.40;;;;;;5052805;28;20037;-73
2023/12/07 11:51:07;;;;;;;7.18;2.30;;;5.00;99.10;;;;;;5052463;28;20039;-73
2023/12/07 11:53:35;;;;;;;7.63;2.55;;;5.00;99.20;;;;;;5051432;28;20143;-73
2023/12/07 11:56:09;;;;;;;6.40;2.45;;;5.10;99.80;;;;;;5050987;28;20040;-73
2023/12/07 11:58:37;;;;;;;6.40;2.60;;;5.10;99.20;;;;;;5052715;28;20545;-73
2023/12/07 12:01:04;;;;;;;3.05;1.58;;;5.30;99.80;;;;;;5051790;28;20040;-73
2023/12/07 12:03:36;;;;;;;3.30;1.50;;;5.40;98.60;;;;;;5050747;28;20042;-74
2023/12/07 12:06:12;;;;;;;9.80;4.88;;;5.40;98.00;;;;;;5053335;28;20040;-76
2023/12/07 12:08:41;;;;;;;38.72;15.90;;;5.80;98.90;;;;;;5052153;28;20029;-74
2023/12/07 12:11:08;;;;;;;16.38;8.60;;;5.70;98.70;;;;;;5053537;28;20033;-73
2023/12/07 12:13:36;;;;;;;13.23;6.75;;;5.70;98.90;;;;;;5059033;28;20036;-73
2023/12/07 12:16:04;;;;;;;10.40;4.70;;;5.80;98.30;;;;;;5052735;28;20032;-73
2023/12/07 12:18:30;;;;;;;9.38;5.03;;;5.80;99.10;;;;;;5049589;28;20060;-73
2023/12/07 12:21:00;;;;;;;6.53;3.40;;;5.70;98.50;;;;;;5051029;28;20072;-73
2023/12/07 12:23:26;;;;;;;10.98;4.70;;;5.70;97.60;;;;;;5049686;28;20581;-73
2023/12/07 12:25:53;;;;;;;11.57;4.13;;;5.80;97.40;;;;;;5048928;28;20036;-73
2023/12/07 12:28:22;;;;;;;5.75;1.80;;;5.70;97.10;;;;;;5049318;28;20044;-72
2023/12/07 12:30:50;;;;;;;4.60;2.45;;;5.70;97.10;;;;;;5048080;28;20058;-73
2023/12/07 12:33:17;;;;;;;4.00;1.83;;;5.80;96.40;;;;;;5047754;28;20044;-72
2023/12/07 12:35:59;;;;;;;4.93;2.72;;;5.80;96.40;;;;;;5047411;28;20135;-73
2023/12/07 12:38:24;;;;;;;20.55;3.80;;;5.90;97.10;;;;;;5047429;28;20458;-73
2023/12/07 12:40:51;;;;;;;18.48;9.35;;;5.80;97.40;;;;;;5049623;28;20028;-73
2023/12/07 12:43:18;;;;;;;4.93;2.40;;;5.90;96.40;;;;;;5047316;28;20120;-73
2023/12/07 12:45:43;;;;;;;4.95;2.30;;;5.80;96.00;;;;;;5048782;28;20327;-73
2023/12/07 12:48:10;;;;;;;4.15;2.08;;;5.80;97.90;;;;;;5047482;28;20075;-73
2023/12/07 12:50:40;;;;;;;5.93;1.92;;;5.80;97.70;;;;;;5047077;28;20142;-73
2023/12/07 12:53:10;;;;;;;5.95;2.45;;;5.70;96.10;;;;;;5045724;28;20382;-73
2023/12/07 12:55:39;;;;;;;5.43;1.95;;;5.70;96.20;;;;;;5048124;28;20040;-73